Time;durP1;ratioP1;P1;durP2;ratioP2;P2;SDS_P1;SDS_P2;PMS_P1;PMS_P2;Temp;Humidity;BMP_temperature;BMP_pressure;BME280_temperature;BME280_humidity;BME280_pressure;Samples;Min_cycle;Max_cycle;Signal;HPM_P1;HPM_P2
2023/12/18 00:00:23;;;;;;;6.63;2.10;;;;;2.50;98530.00;;;;5022367;28;20419;-66
2023/12/18 00:03:12;;;;;;;19.03;5.40;;;;;2.00;98526.00;;;;5031448;28;20995;-66
2023/12/18 00:06:01;;;;;;;14.13;3.93;;;;;2.10;98535.00;;;;5026261;28;20489;-65
2023/12/18 00:08:50;;;;;;;8.13;2.50;;;;;2.50;98536.00;;;;5028355;28;20476;-65
2023/12/18 00:11:39;;;;;;;7.77;2.40;;;;;2.50;98530.00;;;;5028419;28;20828;-66
2023/12/18 00:14:30;;;;;;;6.70;2.17;;;;;2.70;98530.00;;;;5032266;28;20427;-66
2023/12/18 00:17:19;;;;;;;9.80;2.97;;;;;2.40;98525.00;;;;5029995;28;20435;-66
2023/12/18 00:20:09;;;;;;;15.20;4.37;;;;;2.50;98529.00;;;;5027781;28;20440;-65
2023/12/18 00:22:58;;;;;;;14.23;4.13;;;;;2.80;98524.00;;;;5026252;28;20431;-66
2023/12/18 00:25:48;;;;;;;7.97;2.50;;;;;2.60;98520.00;;;;5028271;28;20532;-65
2023/12/18 00:28:37;;;;;;;7.67;2.30;;;;;2.20;98514.00;;;;5027558;28;20463;-65
2023/12/18 00:31:27;;;;;;;7.60;2.23;;;;;2.80;98522.00;;;;5022823;28;20431;-65
2023/12/18 00:34:16;;;;;;;6.13;1.87;;;;;2.80;98520.00;;;;5031518;28;20431;-65
2023/12/18 00:37:06;;;;;;;19.03;5.23;;;;;2.50;98528.00;;;;5025108;28;20433;-66
2023/12/18 00:39:55;;;;;;;13.80;4.13;;;;;2.80;98523.00;;;;5026612;28;20443;-66
2023/12/18 00:42:44;;;;;;;8.40;2.53;;;;;2.80;98518.00;;;;5026691;28;20424;-66
2023/12/18 00:45:33;;;;;;;6.97;2.10;;;;;2.40;98509.00;;;;5028092;28;20440;-65
2023/12/18 00:48:24;;;;;;;6.03;1.90;;;;;2.00;98520.00;;;;5024863;28;20424;-65
2023/12/18 00:51:13;;;;;;;12.37;3.80;;;;;2.40;98512.00;;;;5025491;28;20941;-66
2023/12/18 00:54:02;;;;;;;12.03;3.57;;;;;2.70;98519.00;;;;5027274;28;20428;-66
2023/12/18 00:56:51;;;;;;;10.37;3.03;;;;;2.70;98523.00;;;;5026973;28;20929;-66
2023/12/18 00:59:41;;;;;;;7.43;2.23;;;;;2.20;98508.00;;;;5027582;28;20443;-66
2023/12/18 01:02:30;;;;;;;6.53;2.03;;;;;2.90;98527.00;;;;5026505;28;20969;-66
2023/12/18 01:05:20;;;;;;;10.47;3.07;;;;;3.00;98521.00;;;;5026554;28;20447;-66
2023/12/18 01:08:09;;;;;;;13.40;3.83;;;;;3.10;98514.00;;;;5026514;28;20439;-65
2023/12/18 01:10:59;;;;;;;10.90;3.13;;;;;2.50;98520.00;;;;5027324;28;20420;-66
2023/12/18 01:13:48;;;;;;;9.27;2.70;;;;;2.80;98514.00;;;;5033048;28;20436;-66
2023/12/18 01:16:37;;;;;;;12.70;3.53;;;;;2.90;98516.00;;;;5024495;28;20456;-65
2023/12/18 01:19:26;;;;;;;9.23;2.77;;;;;2.60;98520.00;;;;5027808;28;20424;-66
2023/12/18 01:22:17;;;;;;;14.47;4.27;;;;;2.40;98513.00;;;;5032372;28;20435;-66
2023/12/18 01:25:07;;;;;;;9.80;2.87;;;;;2.00;98516.00;;;;5024747;28;20823;-66
2023/12/18 01:27:56;;;;;;;7.53;2.33;;;;;2.50;98510.00;;;;5026985;28;20443;-66
2023/12/18 01:30:45;;;;;;;6.87;2.13;;;;;2.40;98500.00;;;;5026632;28;20463;-66
2023/12/18 01:33:34;;;;;;;7.97;2.37;;;;;2.60;98500.00;;;;5033027;28;20435;-66
2023/12/18 01:36:23;;;;;;;8.40;2.53;;;;;2.40;98497.00;;;;5024899;28;20470;-65
2023/12/18 01:39:14;;;;;;;15.77;4.50;;;;;2.20;98494.00;;;;5031536;28;20421;-66
2023/12/18 01:42:04;;;;;;;17.33;4.97;;;;;2.20;98494.00;;;;5033991;28;20443;-66
2023/12/18 01:44:53;;;;;;;9.40;2.73;;;;;2.30;98489.00;;;;5029055;28;20455;-66
2023/12/18 01:47:42;;;;;;;9.67;2.83;;;;;2.60;98488.00;;;;5028366;28;20436;-66
2023/12/18 01:50:32;;;;;;;8.57;2.50;;;;;2.70;98487.00;;;;5025015;28;20468;-65
2023/12/18 01:53:22;;;;;;;8.80;2.63;;;;;2.40;98484.00;;;;5035968;28;20420;-65
2023/12/18 01:56:15;;;;;;;12.73;3.73;;;;;2.80;98491.00;;;;5028872;28;20455;-66
2023/12/18 01:59:04;;;;;;;13.77;3.93;;;;;2.60;98485.00;;;;5030642;28;20421;-66
2023/12/18 02:01:54;;;;;;;11.73;3.40;;;;;2.80;98484.00;;;;5027661;28;20432;-66
2023/12/18 02:04:43;;;;;;;8.77;2.50;;;;;2.90;98485.00;;;;5029996;28;20421;-67
2023/12/18 02:07:33;;;;;;;8.83;2.63;;;;;2.40;98477.00;;;;5030527;28;20858;-67
2023/12/18 02:10:22;;;;;;;8.23;2.60;;;;;2.30;98471.00;;;;5029342;28;20471;-65
2023/12/18 02:13:13;;;;;;;15.17;4.37;;;;;2.40;98471.00;;;;5027958;28;20432;-66
2023/12/18 02:16:02;;;;;;;12.60;3.73;;;;;2.50;98470.00;;;;5030889;28;21110;-66
2023/12/18 02:18:51;;;;;;;6.20;2.07;;;;;2.80;98480.00;;;;5029413;28;20440;-66
2023/12/18 02:21:40;;;;;;;9.47;2.80;;;;;3.00;98481.00;;;;5026119;28;20490;-65
2023/12/18 02:24:30;;;;;;;9.67;2.80;;;;;3.00;98485.00;;;;5025079;28;20437;-66
2023/12/18 02:27:19;;;;;;;11.33;3.37;;;;;2.80;98472.00;;;;5026807;28;20432;-66
2023/12/18 02:30:09;;;;;;;11.40;3.37;;;;;2.80;98471.00;;;;5027909;28;20468;-66
2023/12/18 02:32:58;;;;;;;20.37;5.63;;;;;2.50;98476.00;;;;5034268;28;20438;-65
2023/12/18 02:35:47;;;;;;;10.13;2.90;;;;;2.10;98464.00;;;;5027029;28;20463;-66
2023/12/18 02:38:36;;;;;;;8.97;2.67;;;;;2.50;98476.00;;;;5036291;28;20439;-66
2023/12/18 02:41:27;;;;;;;9.27;2.67;;;;;2.00;98468.00;;;;5028772;28;20808;-66
2023/12/18 02:44:16;;;;;;;10.57;3.10;;;;;2.20;98460.00;;;;5028712;28;20941;-66
2023/12/18 02:47:05;;;;;;;16.30;4.47;;;;;2.20;98455.00;;;;5033376;28;20432;-66
2023/12/18 02:49:54;;;;;;;15.67;4.43;;;;;2.20;98461.00;;;;5028892;28;20469;-66
2023/12/18 02:52:43;;;;;;;6.53;1.97;;;;;1.40;98450.00;;;;5028724;28;20436;-68
2023/12/18 02:55:32;;;;;;;10.70;3.27;;;;;2.10;98456.00;;;;5029802;28;20467;-67
2023/12/18 02:58:23;;;;;;;9.70;2.97;;;;;2.50;98451.00;;;;5028953;28;20425;-68
2023/12/18 03:01:12;;;;;;;11.97;3.47;;;;;2.70;98449.00;;;;5027098;28;20429;-68
2023/12/18 03:04:01;;;;;;;11.07;3.27;;;;;2.70;98460.00;;;;5031780;28;20432;-68
2023/12/18 03:06:50;;;;;;;10.17;3.10;;;;;2.70;98464.00;;;;5026561;28;20464;-67
2023/12/18 03:09:40;;;;;;;7.13;2.10;;;;;2.10;98456.00;;;;5028368;28;20460;-66
2023/12/18 03:12:29;;;;;;;7.10;2.30;;;;;2.50;98474.00;;;;5028659;28;20425;-66
2023/12/18 03:15:19;;;;;;;16.47;4.67;;;;;2.40;98461.00;;;;5027460;28;20452;-66
2023/12/18 03:18:08;;;;;;;11.90;3.50;;;;;2.50;98462.00;;;;5027140;28;20421;-66
2023/12/18 03:20:58;;;;;;;8.93;2.80;;;;;2.40;98452.00;;;;5029000;28;20494;-66
2023/12/18 03:23:47;;;;;;;6.17;1.97;;;;;1.90;98455.00;;;;5028451;28;20949;-65
2023/12/18 03:26:36;;;;;;;8.67;2.67;;;;;1.60;98438.00;;;;5025199;28;20957;-69
2023/12/18 03:29:25;;;;;;;5.53;1.73;;;;;1.90;98446.00;;;;5023435;28;20973;-64
2023/12/18 03:32:16;;;;;;;14.20;4.23;;;;;2.30;98451.00;;;;5029494;28;20443;-66
2023/12/18 03:35:05;;;;;;;13.47;3.87;;;;;2.30;98452.00;;;;5033121;28;20478;-65
2023/12/18 03:37:54;;;;;;;9.67;3.00;;;;;2.30;98444.00;;;;5025322;28;20439;-66
2023/12/18 03:40:43;;;;;;;9.17;2.80;;;;;2.70;98450.00;;;;5025331;28;20420;-66
2023/12/18 03:43:33;;;;;;;7.80;2.40;;;;;2.60;98444.00;;;;5029266;28;20424;-66
2023/12/18 03:46:22;;;;;;;10.93;3.23;;;;;2.20;98439.00;;;;5022417;28;20429;-67
2023/12/18 03:49:12;;;;;;;10.67;3.17;;;;;2.60;98435.00;;;;5026820;28;20436;-66
2023/12/18 03:52:01;;;;;;;10.77;3.30;;;;;2.80;98445.00;;;;5027452;28;20460;-66
2023/12/18 03:54:50;;;;;;;6.97;2.17;;;;;2.60;98433.00;;;;5028450;28;20448;-66
2023/12/18 03:57:39;;;;;;;5.70;1.90;;;;;3.00;98448.00;;;;5034011;28;20983;-65
2023/12/18 04:00:29;;;;;;;8.40;2.57;;;;;2.90;98452.00;;;;5023963;28;20424;-66
2023/12/18 04:03:18;;;;;;;13.53;4.23;;;;;2.30;98430.00;;;;5026501;28;20421;-66
2023/12/18 04:06:10;;;;;;;13.97;4.03;;;;;2.20;98431.00;;;;5026443;28;20452;-66
2023/12/18 04:08:59;;;;;;;5.73;1.87;;;;;2.30;98430.00;;;;5028147;28;20424;-66
2023/12/18 04:11:49;;;;;;;9.43;2.93;;;;;1.40;98423.00;;;;5024592;28;20988;-65
2023/12/18 04:14:38;;;;;;;8.30;2.63;;;;;1.80;98418.00;;;;5030480;28;20424;-65
2023/12/18 04:17:27;;;;;;;7.23;2.27;;;;;2.40;98428.00;;;;5027461;28;20436;-65
2023/12/18 04:20:16;;;;;;;12.70;3.83;;;;;2.60;98437.00;;;;5027072;28;20425;-65
2023/12/18 04:23:07;;;;;;;12.93;3.83;;;;;2.10;98428.00;;;;5027853;28;20432;-65
2023/12/18 04:25:56;;;;;;;10.33;3.07;;;;;2.50;98426.00;;;;5027842;28;20459;-65
2023/12/18 04:28:45;;;;;;;8.80;2.63;;;;;2.70;98425.00;;;;5028183;28;20440;-66
2023/12/18 04:31:34;;;;;;;10.23;2.97;;;;;2.70;98423.00;;;;5028040;28;20448;-65
2023/12/18 04:34:23;;;;;;;8.40;2.53;;;;;2.80;98418.00;;;;5031463;28;20432;-66
2023/12/18 04:37:13;;;;;;;15.07;4.33;;;;;2.60;98419.00;;;;5032445;28;20420;-65
2023/12/18 04:40:04;;;;;;;10.80;3.23;;;;;2.60;98425.00;;;;5027290;28;20458;-66
2023/12/18 04:42:54;;;;;;;15.07;4.30;;;;;2.40;98416.00;;;;5027768;28;20883;-66
2023/12/18 04:45:43;;;;;;;8.17;2.63;;;;;2.60;98421.00;;;;5025215;28;20452;-66
2023/12/18 04:48:32;;;;;;;5.50;1.87;;;;;2.40;98419.00;;;;5028253;28;20421;-66
2023/12/18 04:51:21;;;;;;;7.93;2.33;;;;;2.50;98424.00;;;;5027630;28;20467;-66
2023/12/18 04:54:10;;;;;;;13.47;3.90;;;;;2.10;98414.00;;;;5026952;28;20412;-67
2023/12/18 04:57:01;;;;;;;10.27;3.00;;;;;2.20;98416.00;;;;5033360;28;20424;-66
2023/12/18 04:59:50;;;;;;;14.40;4.13;;;;;2.10;98420.00;;;;5025935;28;20421;-66
2023/12/18 05:02:39;;;;;;;6.17;1.93;;;;;1.60;98407.00;;;;5023802;28;20443;-66
2023/12/18 05:05:28;;;;;;;9.50;2.80;;;;;2.00;98405.00;;;;5028012;28;20472;-65
2023/12/18 05:08:18;;;;;;;13.27;4.10;;;;;2.10;98415.00;;;;5036290;28;20539;-65
2023/12/18 05:11:07;;;;;;;15.00;4.23;;;;;2.40;98421.00;;;;5029042;28;20460;-66
2023/12/18 05:13:57;;;;;;;13.83;4.03;;;;;2.30;98426.00;;;;5029771;28;20448;-66
2023/12/18 05:16:47;;;;;;;9.87;3.03;;;;;2.60;98425.00;;;;5031807;28;20456;-66
2023/12/18 05:19:36;;;;;;;7.70;2.27;;;;;2.60;98445.00;;;;5027774;28;20471;-65
2023/12/18 05:22:25;;;;;;;9.87;3.07;;;;;2.70;98435.00;;;;5026587;28;20432;-66
2023/12/18 05:25:14;;;;;;;14.23;4.20;;;;;2.60;98416.00;;;;5028387;28;20444;-66
2023/12/18 05:28:03;;;;;;;10.47;3.13;;;;;2.60;98418.00;;;;5025294;28;20436;-66
2023/12/18 05:30:54;;;;;;;11.53;3.37;;;;;2.50;98415.00;;;;5028846;28;21257;-65
2023/12/18 05:33:43;;;;;;;9.17;2.67;;;;;2.60;98416.00;;;;5032586;28;20451;-65
2023/12/18 05:36:32;;;;;;;11.20;3.27;;;;;1.80;98415.00;;;;5026520;28;20617;-66
2023/12/18 05:39:21;;;;;;;8.77;2.67;;;;;1.60;98423.00;;;;5028201;28;20455;-66
2023/12/18 05:42:10;;;;;;;14.33;4.23;;;;;2.40;98429.00;;;;5030197;28;20954;-67
2023/12/18 05:45:00;;;;;;;11.67;3.37;;;;;2.70;98431.00;;;;5029288;28;20466;-66
2023/12/18 05:47:50;;;;;;;8.87;2.70;;;;;2.30;98432.00;;;;5029945;28;20432;-66
2023/12/18 05:50:39;;;;;;;8.67;2.73;;;;;2.30;98434.00;;;;5027339;28;20432;-65
2023/12/18 05:53:28;;;;;;;12.40;3.67;;;;;2.60;98430.00;;;;5027921;28;20441;-66
2023/12/18 05:56:17;;;;;;;17.07;4.97;;;;;2.50;98435.00;;;;5025106;28;20452;-65
2023/12/18 05:59:07;;;;;;;14.70;4.23;;;;;2.20;98435.00;;;;5029927;28;20440;-66
2023/12/18 06:01:56;;;;;;;13.83;3.93;;;;;2.40;98438.00;;;;5023743;28;20435;-68
2023/12/18 06:04:47;;;;;;;13.83;3.97;;;;;2.50;98436.00;;;;5028179;28;20821;-66
2023/12/18 06:07:36;;;;;;;8.90;2.67;;;;;2.70;98438.00;;;;5026602;28;20424;-66
2023/12/18 06:10:26;;;;;;;8.43;2.50;;;;;2.50;98443.00;;;;5029665;28;20436;-65
2023/12/18 06:13:15;;;;;;;16.53;4.93;;;;;2.40;98440.00;;;;5033827;28;20435;-65
2023/12/18 06:16:05;;;;;;;12.83;3.83;;;;;2.30;98423.00;;;;5027984;28;20460;-66
2023/12/18 06:18:54;;;;;;;9.70;2.93;;;;;1.90;98432.00;;;;5029287;28;20432;-68
2023/12/18 06:21:45;;;;;;;7.47;2.40;;;;;1.20;98426.00;;;;5027335;28;20420;-68
2023/12/18 06:24:34;;;;;;;8.60;2.53;;;;;1.60;98423.00;;;;5027613;28;20428;-66
2023/12/18 06:27:23;;;;;;;7.17;2.27;;;;;2.10;98433.00;;;;5025103;28;20813;-65
2023/12/18 06:30:15;;;;;;;16.73;4.97;;;;;2.20;98434.00;;;;5028235;28;20431;-66
2023/12/18 06:33:05;;;;;;;17.13;4.90;;;;;1.80;98437.00;;;;5027568;28;20973;-65
2023/12/18 06:35:54;;;;;;;12.00;3.33;;;;;1.90;98440.00;;;;5052995;23;20502;-72
2023/12/18 06:38:45;;;;;;;8.13;2.30;;;;;2.20;98448.00;;;;5027874;28;20432;-73
2023/12/18 06:41:34;;;;;;;14.33;3.77;;;;;2.70;98445.00;;;;5028577;28;20432;-73
2023/12/18 06:44:23;;;;;;;14.17;3.73;;;;;2.80;98448.00;;;;5032024;28;20467;-73
2023/12/18 06:47:12;;;;;;;20.13;5.13;;;;;2.50;98445.00;;;;5026088;28;20459;-72
2023/12/18 06:50:03;;;;;;;16.37;4.33;;;;;2.70;98446.00;;;;5027200;28;20455;-73
2023/12/18 06:52:53;;;;;;;14.97;3.80;;;;;2.60;98445.00;;;;5025798;28;20887;-73
2023/12/18 06:55:43;;;;;;;10.97;2.77;;;;;2.70;98443.00;;;;5029086;28;20455;-73
2023/12/18 06:58:32;;;;;;;8.13;2.23;;;;;2.70;98457.00;;;;5026473;28;20436;-72
2023/12/18 07:01:21;;;;;;;11.17;2.83;;;;;2.60;98458.00;;;;5025559;28;20945;-73
2023/12/18 07:04:11;;;;;;;21.07;5.23;;;;;2.50;98466.00;;;;5028520;28;20428;-73
2023/12/18 07:07:00;;;;;;;11.57;3.03;;;;;2.20;98458.00;;;;5028643;28;20456;-73
2023/12/18 07:09:50;;;;;;;14.87;3.73;;;;;2.10;98455.00;;;;5035143;28;20964;-74
2023/12/18 07:12:41;;;;;;;11.73;2.97;;;;;2.30;98460.00;;;;5031790;28;20468;-74
2023/12/18 07:15:30;;;;;;;8.00;2.17;;;;;2.00;98466.00;;;;5029546;28;20456;-72
2023/12/18 07:18:19;;;;;;;15.37;3.97;;;;;2.20;98453.00;;;;5027702;28;21007;-74
2023/12/18 07:21:08;;;;;;;24.13;6.10;;;;;2.40;98466.00;;;;5034549;28;20451;-75
2023/12/18 07:23:57;;;;;;;10.27;2.67;;;;;1.70;98451.00;;;;5033892;28;20816;-74
2023/12/18 07:26:46;;;;;;;13.27;3.30;;;;;1.90;98466.00;;;;5029303;28;20487;-73
2023/12/18 07:29:37;;;;;;;10.80;2.90;;;;;1.70;98464.00;;;;5021334;28;20782;-74
2023/12/18 07:32:26;;;;;;;12.13;3.23;;;;;1.90;98471.00;;;;5026757;28;20475;-73
2023/12/18 07:35:15;;;;;;;22.87;5.70;;;;;2.10;98463.00;;;;5023548;28;20435;-73
2023/12/18 07:38:04;;;;;;;10.77;2.83;;;;;2.50;98468.00;;;;5035475;28;20436;-74
2023/12/18 07:40:53;;;;;;;9.80;2.67;;;;;2.40;98466.00;;;;5019847;28;20433;-73
2023/12/18 07:43:43;;;;;;;9.13;2.43;;;;;2.30;98461.00;;;;5029475;28;20436;-73
2023/12/18 07:46:33;;;;;;;14.90;3.77;;;;;2.90;98472.00;;;;5030077;28;20452;-74
2023/12/18 07:49:23;;;;;;;10.67;2.90;;;;;2.50;98476.00;;;;5031143;28;20948;-74
2023/12/18 07:52:12;;;;;;;20.70;5.03;;;;;2.80;98470.00;;;;5033707;28;20521;-75
2023/12/18 07:55:01;;;;;;;12.97;3.23;;;;;3.40;98473.00;;;;5028782;28;20448;-75
2023/12/18 07:57:50;;;;;;;9.70;2.53;;;;;2.90;98473.00;;;;5028181;28;20455;-74
2023/12/18 08:00:39;;;;;;;9.20;2.47;;;;;3.10;98479.00;;;;5023759;28;20429;-73
2023/12/18 08:03:30;;;;;;;10.10;2.53;;;;;2.70;98460.00;;;;5013089;28;20433;-73
2023/12/18 08:06:19;;;;;;;14.53;3.67;;;;;2.90;98479.00;;;;5010473;28;20445;-74
2023/12/18 08:09:08;;;;;;;18.70;4.53;;;;;3.50;98478.00;;;;5012150;28;20447;-74
2023/12/18 08:11:57;;;;;;;10.23;2.63;;;;;4.00;98482.00;;;;5016348;28;20433;-74
2023/12/18 08:14:46;;;;;;;11.57;2.83;;;;;4.10;98485.00;;;;5021284;28;20428;-74
2023/12/18 08:17:38;;;;;;;10.37;2.67;;;;;3.90;98485.00;;;;5010836;28;20429;-75
2023/12/18 08:20:29;;;;;;;11.13;2.80;;;;;3.60;98481.00;;;;5019414;28;20575;-73
2023/12/18 08:23:18;;;;;;;16.70;4.13;;;;;3.50;98478.00;;;;5012543;28;20448;-74
2023/12/18 08:26:07;;;;;;;15.13;3.73;;;;;3.90;98485.00;;;;5014695;28;20456;-75
2023/12/18 08:28:57;;;;;;;11.67;2.83;;;;;3.90;98480.00;;;;5017332;28;20433;-74
2023/12/18 08:31:46;;;;;;;17.27;4.27;;;;;4.00;98477.00;;;;5024928;28;20933;-74
2023/12/18 08:34:35;;;;;;;12.10;3.07;;;;;3.10;98468.00;;;;5014390;28;20798;-73
2023/12/18 08:37:26;;;;;;;11.40;2.83;;;;;2.90;98474.00;;;;5021929;28;20198;-74
2023/12/18 08:40:15;;;;;;;22.63;5.37;;;;;3.60;98477.00;;;;5014711;28;20421;-74
2023/12/18 08:43:04;;;;;;;14.90;3.53;;;;;4.00;98481.00;;;;5024627;28;20797;-74
2023/12/18 08:45:53;;;;;;;35.83;8.20;;;;;4.00;98483.00;;;;5017467;28;20213;-75
2023/12/18 08:48:43;;;;;;;11.90;2.97;;;;;4.40;98482.00;;;;5008392;28;20460;-75
2023/12/18 08:51:32;;;;;;;13.80;3.37;;;;;5.10;98495.00;;;;5015708;28;20929;-74
2023/12/18 08:54:22;;;;;;;26.43;6.17;;;;;4.60;98487.00;;;;5022689;28;20474;-75
2023/12/18 08:57:11;;;;;;;21.60;5.10;;;;;5.40;98483.00;;;;5028017;28;20221;-75
2023/12/18 09:00:01;;;;;;;14.37;3.53;;;;;5.40;98477.00;;;;5022222;28;20215;-73
2023/12/18 09:02:50;;;;;;;19.97;4.60;;;;;5.30;98474.00;;;;5023193;28;20201;-74
2023/12/18 09:05:39;;;;;;;8.23;2.07;;;;;5.70;98481.00;;;;5020827;28;20222;-74
2023/12/18 09:08:31;;;;;;;10.67;2.57;;;;;5.60;98474.00;;;;5023453;28;20205;-75
2023/12/18 09:11:21;;;;;;;18.27;4.47;;;;;6.20;98481.00;;;;5016412;28;20209;-74
2023/12/18 09:14:11;;;;;;;19.60;4.63;;;;;6.30;98477.00;;;;5031787;28;20232;-75
2023/12/18 09:17:00;;;;;;;8.53;2.10;;;;;6.40;98475.00;;;;5035712;28;20240;-75
2023/12/18 09:19:50;;;;;;;18.90;4.50;;;;;6.70;98477.00;;;;5041495;28;20196;-74
2023/12/18 09:22:39;;;;;;;11.30;2.70;;;;;6.60;98478.00;;;;5030253;28;20213;-74
2023/12/18 09:25:28;;;;;;;12.50;3.10;;;;;6.80;98477.00;;;;5034661;28;20265;-74
2023/12/18 09:28:18;;;;;;;17.57;4.17;;;;;6.70;98470.00;;;;5028738;28;20220;-74
2023/12/18 09:31:07;;;;;;;15.90;3.80;;;;;7.10;98471.00;;;;5031140;28;20208;-74
2023/12/18 09:33:57;;;;;;;9.30;2.27;;;;;7.00;98469.00;;;;5030450;28;20634;-75
2023/12/18 09:36:46;;;;;;;16.90;4.03;;;;;7.70;98466.00;;;;5025532;28;20232;-74
2023/12/18 09:39:35;;;;;;;9.87;2.43;;;;;7.70;98460.00;;;;5037661;28;20201;-75
2023/12/18 09:42:25;;;;;;;8.40;2.10;;;;;7.80;98453.00;;;;5028780;28;20214;-75
2023/12/18 09:45:17;;;;;;;21.67;5.00;;;;;7.80;98459.00;;;;5029533;28;20201;-74
2023/12/18 09:48:08;;;;;;;13.40;3.23;;;;;8.40;98459.00;;;;5021471;28;20205;-74
2023/12/18 09:50:57;;;;;;;16.77;3.93;;;;;8.90;98459.00;;;;5020310;28;20679;-74
2023/12/18 09:53:47;;;;;;;10.77;2.63;;;;;9.20;98463.00;;;;5018411;28;20226;-74
2023/12/18 09:56:37;;;;;;;17.43;3.97;;;;;9.30;98456.00;;;;5019602;28;20617;-73
2023/12/18 09:59:26;;;;;;;12.53;3.00;;;;;9.10;98454.00;;;;5017710;28;20210;-75
2023/12/18 10:02:18;;;;;;;12.83;3.13;;;;;9.20;98444.00;;;;5013365;28;20209;-75
2023/12/18 10:05:08;;;;;;;14.23;3.33;;;;;10.00;98448.00;;;;5013521;28;20208;-74
2023/12/18 10:08:01;;;;;;;12.73;3.10;;;;;9.30;98430.00;;;;5021259;28;20216;-73
2023/12/18 10:10:51;;;;;;;14.27;3.33;;;;;9.50;98425.00;;;;5021827;28;20209;-74
2023/12/18 10:13:42;;;;;;;11.73;2.77;;;;;9.20;98418.00;;;;5014327;28;20303;-73
2023/12/18 10:16:32;;;;;;;11.80;2.83;;;;;9.90;98425.00;;;;5025328;28;20248;-75
2023/12/18 10:19:27;;;;;;;17.30;4.03;;;;;10.20;98423.00;;;;5018047;28;20212;-74
2023/12/18 10:22:18;;;;;;;26.70;6.00;;;;;11.00;98418.00;;;;5027056;28;20202;-74
2023/12/18 10:25:08;;;;;;;12.93;3.07;;;;;10.80;98411.00;;;;5014123;28;20814;-75
2023/12/18 10:27:57;;;;;;;10.20;2.47;;;;;11.30;98393.00;;;;5018163;28;20194;-75
2023/12/18 10:30:47;;;;;;;14.70;3.50;;;;;11.50;98392.00;;;;5018127;28;20690;-75
2023/12/18 10:33:37;;;;;;;10.50;2.63;;;;;11.60;98393.00;;;;5010860;28;20699;-74
2023/12/18 10:36:28;;;;;;;12.70;3.00;;;;;11.80;98392.00;;;;5020638;28;20237;-75
2023/12/18 10:39:19;;;;;;;24.77;5.57;;;;;11.90;98392.00;;;;5035118;28;20205;-75
2023/12/18 10:42:12;;;;;;;15.70;3.60;;;;;12.20;98393.00;;;;5028539;28;20220;-76
2023/12/18 10:45:06;;;;;;;14.73;3.50;;;;;12.40;98388.00;;;;5029636;28;20197;-77
2023/12/18 10:47:55;;;;;;;12.93;3.03;;;;;12.00;98373.00;;;;5029222;28;20206;-78
2023/12/18 10:50:46;;;;;;;12.67;3.03;;;;;13.40;98377.00;;;;5030983;28;20211;-76
2023/12/18 10:53:38;;;;;;;16.03;3.77;;;;;13.60;98384.00;;;;5023932;28;20221;-76
2023/12/18 10:56:27;;;;;;;18.63;4.63;;;;;14.50;98389.00;;;;5027561;28;20233;-78
2023/12/18 10:59:18;;;;;;;30.60;9.17;;;;;14.10;98369.00;;;;5031724;28;20221;-77
2023/12/18 11:02:08;;;;;;;10.03;2.93;;;;;14.50;98384.00;;;;5029652;28;20205;-78
2023/12/18 11:04:57;;;;;;;8.77;2.63;;;;;15.20;98367.00;;;;5027931;28;20197;-78
2023/12/18 11:07:46;;;;;;;9.67;2.90;;;;;16.00;98368.00;;;;5033988;28;20197;-77
2023/12/18 11:10:38;;;;;;;8.20;2.53;;;;;16.00;98367.00;;;;5033571;28;20205;-77
2023/12/18 11:13:28;;;;;;;9.23;2.80;;;;;15.60;98354.00;;;;5032464;28;20205;-77
2023/12/18 11:16:23;;;;;;;25.50;7.53;;;;;16.40;98367.00;;;;5016933;28;20240;-77
2023/12/18 11:19:19;;;;;;;19.53;5.93;;;;;15.00;98353.00;;;;5025440;28;20565;-77
2023/12/18 11:22:11;;;;;;;19.17;5.73;;;;;15.80;98343.00;;;;5025759;28;20209;-77
2023/12/18 11:25:00;;;;;;;9.73;3.07;;;;;16.10;98345.00;;;;5029553;28;20251;-76
2023/12/18 11:27:52;;;;;;;7.90;2.53;;;;;16.40;98346.00;;;;5025816;28;20212;-76
2023/12/18 11:30:43;;;;;;;6.63;2.23;;;;;17.50;98338.00;;;;5027108;28;20204;-76
2023/12/18 11:33:32;;;;;;;9.50;3.30;;;;;17.00;98329.00;;;;5024885;28;20208;-76
2023/12/18 11:36:24;;;;;;;15.57;5.27;;;;;17.30;98335.00;;;;5031309;28;20232;-76
2023/12/18 11:39:13;;;;;;;14.07;4.77;;;;;18.00;98339.00;;;;5026427;28;20733;-76
2023/12/18 11:42:02;;;;;;;12.47;4.20;;;;;17.40;98328.00;;;;5029968;28;20224;-76
2023/12/18 11:44:55;;;;;;;10.10;3.37;;;;;17.70;98332.00;;;;5025482;28;20229;-76
2023/12/18 11:47:44;;;;;;;4.87;1.53;;;;;17.70;98323.00;;;;5029634;28;20223;-76
2023/12/18 11:50:35;;;;;;;11.23;3.57;;;;;18.80;98320.00;;;;5029204;28;20577;-76
2023/12/18 11:53:35;;;;;;;14.07;4.40;;;;;18.00;98318.00;;;;5030466;28;20209;-76
2023/12/18 11:56:24;;;;;;;15.80;4.87;;;;;17.40;98300.00;;;;5024797;28;20899;-74
2023/12/18 11:59:15;;;;;;;15.40;4.73;;;;;17.90;98301.00;;;;5014992;28;20202;-76
2023/12/18 12:02:05;;;;;;;10.93;3.40;;;;;18.40;98298.00;;;;5031883;28;20213;-76
2023/12/18 12:04:55;;;;;;;13.23;4.13;;;;;18.80;98303.00;;;;5028550;28;20918;-76
2023/12/18 12:07:50;;;;;;;9.33;3.07;;;;;17.20;98306.00;;;;5027204;28;20205;-76
2023/12/18 12:10:43;;;;;;;7.70;2.50;;;;;17.70;98294.00;;;;5031271;28;20204;-76
2023/12/18 12:13:32;;;;;;;12.87;3.87;;;;;18.00;98284.00;;;;5022590;28;20215;-76
2023/12/18 12:16:21;;;;;;;16.63;5.13;;;;;18.50;98287.00;;;;5023271;28;20221;-76
2023/12/18 12:19:13;;;;;;;15.73;4.70;;;;;19.30;98286.00;;;;5024050;28;20201;-76
2023/12/18 12:22:03;;;;;;;17.20;5.40;;;;;19.70;98292.00;;;;5026662;28;20201;-76
2023/12/18 12:24:52;;;;;;;9.90;3.33;;;;;20.10;98283.00;;;;5030643;28;20383;-77
2023/12/18 12:27:41;;;;;;;5.83;2.17;;;;;17.50;98267.00;;;;5033355;28;20211;-76
2023/12/18 12:30:30;;;;;;;9.27;3.27;;;;;19.40;98272.00;;;;5028568;28;20208;-76
2023/12/18 12:33:19;;;;;;;14.43;4.80;;;;;18.90;98270.00;;;;5023667;28;20215;-76
2023/12/18 12:36:10;;;;;;;7.63;2.90;;;;;18.30;98258.00;;;;5025622;23;20317;-68
2023/12/18 12:39:00;;;;;;;7.50;2.80;;;;;18.30;98268.00;;;;4987188;28;20783;-68
2023/12/18 12:41:50;;;;;;;10.20;3.73;;;;;19.70;98266.00;;;;4992604;28;20202;-68
2023/12/18 12:44:39;;;;;;;9.07;3.30;;;;;18.60;98260.00;;;;4986513;28;20226;-69
2023/12/18 12:47:28;;;;;;;8.57;3.27;;;;;18.60;98258.00;;;;4987925;28;20277;-68
2023/12/18 12:50:17;;;;;;;15.00;5.23;;;;;20.30;98266.00;;;;4991205;28;20206;-68
2023/12/18 12:53:09;;;;;;;12.80;4.73;;;;;20.10;98258.00;;;;4980067;28;20602;-68
2023/12/18 12:55:59;;;;;;;12.23;4.73;;;;;21.40;98255.00;;;;4990507;28;20230;-67
2023/12/18 12:58:48;;;;;;;11.90;5.90;;;;;20.90;98261.00;;;;4991216;28;20246;-68
2023/12/18 13:01:37;;;;;;;15.83;11.20;;;;;21.30;98263.00;;;;4986411;28;22128;-68
2023/12/18 13:04:26;;;;;;;48.20;45.10;;;;;20.90;98255.00;;;;4985416;28;20765;-68
2023/12/18 13:07:16;;;;;;;131.30;122.30;;;;;20.00;98245.00;;;;5002340;28;20222;-68
2023/12/18 13:10:09;;;;;;;374.87;352.33;;;;;21.20;98254.00;;;;4995043;28;19929;-68
2023/12/18 13:13:00;;;;;;;341.90;322.20;;;;;19.40;98242.00;;;;4995456;28;20900;-68
2023/12/18 13:15:51;;;;;;;140.30;133.95;;;;;20.50;98239.00;;;;4991324;28;20232;-68
2023/12/18 13:18:40;;;;;;;80.03;76.27;;;;;19.80;98236.00;;;;4983979;28;20807;-69
2023/12/18 13:21:29;;;;;;;63.30;60.37;;;;;20.90;98246.00;;;;4989529;28;20254;-68
2023/12/18 13:24:18;;;;;;;27.40;24.70;;;;;21.00;98249.00;;;;4994205;28;20209;-68
2023/12/18 13:27:09;;;;;;;30.10;27.63;;;;;21.60;98250.00;;;;4995089;28;20724;-68
2023/12/18 13:29:58;;;;;;;31.03;24.63;;;;;20.80;98244.00;;;;4998514;28;20840;-68
2023/12/18 13:32:47;;;;;;;15.33;13.10;;;;;17.00;98228.00;;;;4993747;28;20208;-69
2023/12/18 13:35:36;;;;;;;9.93;6.17;;;;;16.60;98231.00;;;;5001487;28;20248;-67
2023/12/18 13:38:25;;;;;;;18.87;8.80;;;;;16.60;98228.00;;;;4990468;28;20218;-68
2023/12/18 13:41:14;;;;;;;14.77;5.87;;;;;15.20;98225.00;;;;4997895;28;20222;-69
2023/12/18 13:44:05;;;;;;;8.73;3.50;;;;;15.10;98224.00;;;;4996889;28;20214;-68
2023/12/18 13:46:54;;;;;;;6.93;2.67;;;;;15.10;98229.00;;;;4990446;28;20700;-68
2023/12/18 13:49:43;;;;;;;6.07;2.40;;;;;15.30;98225.00;;;;4997309;28;20209;-68
2023/12/18 13:52:33;;;;;;;6.60;2.60;;;;;16.40;98215.00;;;;4997966;28;20194;-68
2023/12/18 13:55:22;;;;;;;15.23;5.53;;;;;15.00;98223.00;;;;4994998;28;20209;-68
2023/12/18 13:58:11;;;;;;;36.80;13.27;;;;;14.00;98226.00;;;;4989382;28;20296;-68
2023/12/18 14:01:01;;;;;;;9.83;3.60;;;;;13.40;98212.00;;;;4993017;28;20599;-67
2023/12/18 14:03:52;;;;;;;8.10;2.93;;;;;13.30;98211.00;;;;4988225;28;20708;-67
2023/12/18 14:06:41;;;;;;;11.20;4.00;;;;;13.20;98222.00;;;;4990311;28;20233;-68
2023/12/18 14:09:30;;;;;;;6.77;2.67;;;;;12.60;98222.00;;;;4990716;28;20207;-67